Time;durP1;ratioP1;P1;durP2;ratioP2;P2;SDS_P1;SDS_P2;PMS_P1;PMS_P2;Temp;Humidity;BMP_temperature;BMP_pressure;BME280_temperature;BME280_humidity;BME280_pressure;Samples;Min_cycle;Max_cycle;Signal;HPM_P1;HPM_P2
2023/07/02 00:02:09;;;;;;;8.20;7.50;;;22.10;67.50;;;;;;5033552;28;20075;-79
2023/07/02 00:04:34;;;;;;;8.20;7.60;;;22.20;67.40;;;;;;5052265;28;20633;-79
2023/07/02 00:07:00;;;;;;;8.43;7.63;;;22.10;67.50;;;;;;5048341;28;21718;-78
2023/07/02 00:09:26;;;;;;;8.18;7.47;;;22.10;67.70;;;;;;5053809;28;20311;-79
2023/07/02 00:11:51;;;;;;;8.15;7.45;;;22.10;67.50;;;;;;5035881;28;20119;-79
2023/07/02 00:14:17;;;;;;;7.80;7.20;;;22.10;67.50;;;;;;5052024;28;20036;-79
2023/07/02 00:16:44;;;;;;;7.65;7.05;;;22.10;67.50;;;;;;5052319;28;20491;-78
2023/07/02 00:19:11;;;;;;;8.10;7.40;;;22.10;67.50;;;;;;5064683;28;20060;-78
2023/07/02 00:21:37;;;;;;;7.03;6.43;;;22.10;67.40;;;;;;5052188;28;20543;-79
2023/07/02 00:24:03;;;;;;;7.80;7.28;;;22.10;67.50;;;;;;5046889;28;20128;-78
2023/07/02 00:26:28;;;;;;;7.25;6.65;;;22.10;67.40;;;;;;5053898;28;20151;-79
2023/07/02 00:28:54;;;;;;;7.55;6.95;;;22.10;67.40;;;;;;5051823;28;20056;-79
2023/07/02 00:31:20;;;;;;;7.40;6.85;;;22.10;68.10;;;;;;5049458;28;20048;-79
2023/07/02 00:33:46;;;;;;;7.65;7.03;;;22.10;67.30;;;;;;5037042;28;20044;-79
2023/07/02 00:36:14;;;;;;;6.72;6.22;;;22.10;67.20;;;;;;5062901;28;20414;-78
2023/07/02 00:38:47;;;;;;;7.65;7.05;;;22.10;67.20;;;;;;5048854;28;20517;-80
2023/07/02 00:41:13;;;;;;;7.18;6.57;;;22.10;67.20;;;;;;5053000;28;20040;-78
2023/07/02 00:43:43;;;;;;;8.77;8.07;;;22.10;67.20;;;;;;5048305;28;20510;-78
2023/07/02 00:46:09;;;;;;;7.80;7.13;;;22.10;67.10;;;;;;5065304;28;20112;-79
2023/07/02 00:48:34;;;;;;;7.97;7.28;;;22.10;67.20;;;;;;5052078;28;20052;-79
2023/07/02 00:51:00;;;;;;;8.32;7.63;;;22.00;67.10;;;;;;5067235;28;20028;-79
2023/07/02 00:53:26;;;;;;;7.50;7.00;;;22.10;67.20;;;;;;5050387;28;20043;-79
2023/07/02 00:55:51;;;;;;;6.30;5.90;;;22.10;67.20;;;;;;5044923;28;20025;-79
2023/07/02 00:58:17;;;;;;;6.63;6.13;;;22.00;67.10;;;;;;5048826;28;20127;-79
2023/07/02 01:00:43;;;;;;;6.75;6.25;;;22.10;67.20;;;;;;5057758;28;20095;-79
2023/07/02 01:03:09;;;;;;;7.30;6.70;;;22.10;67.10;;;;;;5049766;28;20049;-79
2023/07/02 01:05:37;;;;;;;7.00;6.47;;;22.00;67.10;;;;;;5020788;28;20050;-79
2023/07/02 01:08:05;;;;;;;6.95;6.35;;;22.00;67.10;;;;;;5028986;28;20037;-79
2023/07/02 01:10:32;;;;;;;7.38;6.78;;;22.00;67.10;;;;;;5047736;28;20063;-79
2023/07/02 01:13:00;;;;;;;6.93;6.32;;;22.10;67.10;;;;;;5072149;28;20042;-79
2023/07/02 01:15:26;;;;;;;7.28;6.68;;;22.00;67.10;;;;;;5041674;28;20512;-79
2023/07/02 01:17:52;;;;;;;7.70;7.00;;;22.10;67.10;;;;;;5052485;28;20044;-79
2023/07/02 01:20:19;;;;;;;6.63;6.13;;;22.10;67.10;;;;;;5036236;28;20032;-79
2023/07/02 01:22:45;;;;;;;6.75;6.18;;;22.10;67.10;;;;;;5036045;28;20045;-80
2023/07/02 01:25:11;;;;;;;7.57;6.85;;;22.00;67.10;;;;;;5045924;28;20041;-78
2023/07/02 01:27:37;;;;;;;7.60;7.05;;;22.00;67.10;;;;;;5048111;28;20566;-79
2023/07/02 01:30:03;;;;;;;7.10;6.55;;;22.00;67.10;;;;;;5033868;28;20533;-79
2023/07/02 01:32:28;;;;;;;6.72;6.22;;;22.00;67.10;;;;;;5021236;28;20049;-79
2023/07/02 01:34:54;;;;;;;6.38;5.93;;;22.00;67.10;;;;;;5015468;28;20047;-79
2023/07/02 01:37:19;;;;;;;8.00;7.28;;;22.10;67.10;;;;;;5032398;28;20057;-79
2023/07/02 01:39:45;;;;;;;6.50;6.00;;;22.00;67.10;;;;;;5050171;28;20090;-79
2023/07/02 01:42:14;;;;;;;6.70;6.20;;;22.00;67.00;;;;;;5031531;28;20098;-79
2023/07/02 01:44:40;;;;;;;6.95;6.35;;;22.00;67.00;;;;;;5036994;28;20041;-79
2023/07/02 01:47:05;;;;;;;6.95;6.45;;;22.00;66.90;;;;;;5034956;28;20030;-79
2023/07/02 01:49:32;;;;;;;6.90;6.25;;;22.00;67.00;;;;;;5033359;28;20049;-79
2023/07/02 01:51:57;;;;;;;6.38;5.97;;;22.00;67.00;;;;;;5034779;28;20041;-79
2023/07/02 01:54:29;;;;;;;7.35;6.75;;;22.00;67.10;;;;;;5047365;28;20518;-79
2023/07/02 01:56:55;;;;;;;7.25;6.65;;;22.00;66.90;;;;;;5017247;28;20087;-79
2023/07/02 01:59:21;;;;;;;6.53;6.03;;;22.00;67.00;;;;;;5031028;28;20048;-79
2023/07/02 02:01:46;;;;;;;7.00;6.50;;;22.00;66.90;;;;;;5043589;28;20033;-79
2023/07/02 02:04:12;;;;;;;5.95;5.55;;;22.00;67.00;;;;;;5032880;28;20048;-78
2023/07/02 02:06:38;;;;;;;6.60;6.10;;;22.00;66.90;;;;;;5041509;28;20029;-79
2023/07/02 02:09:04;;;;;;;7.20;6.60;;;22.00;67.00;;;;;;5032238;28;20040;-79
2023/07/02 02:11:30;;;;;;;6.68;6.18;;;22.00;66.90;;;;;;5030586;28;20541;-79
2023/07/02 02:13:56;;;;;;;7.32;6.72;;;22.00;66.90;;;;;;5035563;28;20052;-79
2023/07/02 02:16:22;;;;;;;7.38;6.78;;;22.00;66.90;;;;;;5030300;28;20143;-79
2023/07/02 02:18:47;;;;;;;6.22;5.72;;;22.00;66.90;;;;;;5045219;28;20494;-79
2023/07/02 02:21:13;;;;;;;6.68;6.18;;;22.00;66.90;;;;;;5030253;28;20041;-78
2023/07/02 02:23:39;;;;;;;6.72;6.13;;;22.00;66.90;;;;;;5043624;28;20060;-79
2023/07/02 02:26:04;;;;;;;5.60;5.15;;;22.00;66.90;;;;;;5049757;28;20033;-79
2023/07/02 02:28:30;;;;;;;6.45;6.00;;;22.00;66.90;;;;;;5031520;28;20061;-79
2023/07/02 02:30:55;;;;;;;5.75;5.32;;;22.00;67.00;;;;;;5034539;28;20590;-79
2023/07/02 02:33:21;;;;;;;7.18;6.68;;;22.00;66.90;;;;;;5031831;28;20037;-79
2023/07/02 02:35:48;;;;;;;7.05;6.45;;;21.90;66.90;;;;;;5034528;28;20053;-79
2023/07/02 02:38:14;;;;;;;6.38;5.72;;;21.90;66.90;;;;;;5028076;28;20048;-79
2023/07/02 02:40:40;;;;;;;6.32;5.78;;;22.00;66.80;;;;;;5033690;28;20086;-79
2023/07/02 02:43:05;;;;;;;6.85;6.25;;;21.90;66.80;;;;;;5039206;28;20058;-80
2023/07/02 02:45:31;;;;;;;6.53;6.03;;;22.00;66.90;;;;;;5053433;28;20045;-79
2023/07/02 02:47:56;;;;;;;6.15;5.75;;;21.90;66.90;;;;;;5055324;28;20509;-79
2023/07/02 02:50:22;;;;;;;7.47;6.45;;;21.90;66.80;;;;;;5049543;28;20041;-79
2023/07/02 02:52:48;;;;;;;5.88;5.47;;;21.90;66.90;;;;;;5034011;28;20037;-80
2023/07/02 02:55:13;;;;;;;5.90;5.50;;;21.90;66.80;;;;;;5025943;28;20077;-78
2023/07/02 02:57:39;;;;;;;6.05;5.55;;;21.90;66.80;;;;;;5033540;28;20254;-79
2023/07/02 03:00:07;;;;;;;5.80;5.40;;;21.90;66.90;;;;;;5033077;28;20065;-79
2023/07/02 03:02:32;;;;;;;5.75;5.25;;;21.90;66.80;;;;;;5030862;28;20049;-79
2023/07/02 03:05:02;;;;;;;6.00;5.60;;;21.90;66.90;;;;;;5032869;28;20057;-80
2023/07/02 03:07:28;;;;;;;6.07;5.68;;;21.90;66.90;;;;;;5027746;28;20089;-79
2023/07/02 03:09:54;;;;;;;5.47;5.07;;;21.90;66.70;;;;;;5031198;28;20033;-79
2023/07/02 03:12:19;;;;;;;6.07;5.68;;;21.90;66.80;;;;;;5032683;28;20044;-79
2023/07/02 03:14:47;;;;;;;6.25;5.85;;;21.90;66.70;;;;;;5034005;28;20102;-79
2023/07/02 03:17:13;;;;;;;5.50;5.10;;;21.90;66.80;;;;;;5029350;28;20104;-78
2023/07/02 03:19:38;;;;;;;6.75;6.20;;;21.90;66.80;;;;;;5035280;28;20453;-79
2023/07/02 03:22:04;;;;;;;5.63;5.32;;;21.90;66.80;;;;;;5032920;28;20447;-79
2023/07/02 03:24:30;;;;;;;5.60;5.20;;;21.90;66.80;;;;;;5037135;28;20037;-79
2023/07/02 03:26:55;;;;;;;5.95;5.45;;;21.90;66.80;;;;;;5028796;28;20091;-79
2023/07/02 03:29:21;;;;;;;5.22;4.93;;;21.90;66.70;;;;;;5028992;28;20045;-79
2023/07/02 03:31:46;;;;;;;5.18;4.78;;;21.90;66.70;;;;;;5030587;28;20799;-79
2023/07/02 03:34:12;;;;;;;5.72;5.32;;;21.90;66.70;;;;;;5028957;28;20059;-78
2023/07/02 03:36:38;;;;;;;5.43;5.03;;;21.90;66.80;;;;;;5053919;28;20044;-79
2023/07/02 03:39:04;;;;;;;5.60;5.30;;;21.90;66.70;;;;;;5050062;28;20045;-79
2023/07/02 03:41:29;;;;;;;5.53;5.13;;;21.90;66.70;;;;;;5049232;28;20041;-79
2023/07/02 03:43:55;;;;;;;6.10;5.60;;;21.90;66.80;;;;;;5052454;28;20528;-79
2023/07/02 03:46:20;;;;;;;6.10;5.70;;;21.90;66.70;;;;;;5033513;28;20099;-78
2023/07/02 03:48:46;;;;;;;5.68;5.28;;;21.90;66.70;;;;;;5046571;28;20523;-79
2023/07/02 03:51:14;;;;;;;5.63;5.22;;;21.90;66.70;;;;;;5035463;28;20048;-79
2023/07/02 03:53:41;;;;;;;5.55;5.15;;;21.90;67.20;;;;;;5029698;28;20033;-79
2023/07/02 03:56:06;;;;;;;5.30;4.90;;;21.90;67.10;;;;;;5030823;28;20037;-79
2023/07/02 03:58:32;;;;;;;5.88;5.47;;;21.90;66.70;;;;;;5032822;28;20052;-79
2023/07/02 04:00:57;;;;;;;5.53;5.13;;;21.90;66.70;;;;;;5047930;28;20041;-79
2023/07/02 04:03:23;;;;;;;5.50;5.13;;;21.90;66.70;;;;;;5032498;28;20041;-78
2023/07/02 04:05:49;;;;;;;5.20;4.90;;;21.90;66.70;;;;;;5032142;28;20048;-79
2023/07/02 04:08:15;;;;;;;5.45;5.10;;;21.90;66.60;;;;;;5044661;28;20051;-77
2023/07/02 04:10:41;;;;;;;5.38;5.07;;;21.80;66.60;;;;;;5057227;28;20232;-79
2023/07/02 04:13:06;;;;;;;5.63;5.25;;;21.90;66.70;;;;;;5058860;28;20064;-79
2023/07/02 04:15:32;;;;;;;5.40;5.00;;;21.90;66.70;;;;;;5034513;28;20056;-79
2023/07/02 04:17:58;;;;;;;5.05;4.75;;;21.90;66.60;;;;;;5033601;28;20481;-79
2023/07/02 04:20:23;;;;;;;5.15;4.85;;;21.90;66.70;;;;;;5031584;28;20060;-78
2023/07/02 04:22:49;;;;;;;5.38;4.97;;;21.90;66.70;;;;;;5029161;28;20516;-79
2023/07/02 04:25:15;;;;;;;6.05;5.55;;;21.90;66.70;;;;;;5026999;28;20038;-79
2023/07/02 04:27:42;;;;;;;5.60;5.18;;;21.90;66.60;;;;;;5040736;28;20058;-79
2023/07/02 04:30:08;;;;;;;5.13;4.82;;;21.80;66.60;;;;;;5050130;28;20045;-79
2023/07/02 04:32:34;;;;;;;6.15;5.75;;;21.90;66.60;;;;;;5048087;28;20536;-78
2023/07/02 04:34:59;;;;;;;4.82;4.53;;;21.80;66.60;;;;;;5034163;28;20044;-79
2023/07/02 04:37:25;;;;;;;5.85;5.35;;;21.90;66.60;;;;;;5027616;28;20038;-79
2023/07/02 04:39:50;;;;;;;4.75;4.45;;;21.90;66.60;;;;;;5042932;28;20079;-78
2023/07/02 04:42:16;;;;;;;5.47;5.07;;;21.80;66.50;;;;;;5045056;28;20503;-79
2023/07/02 04:44:43;;;;;;;6.32;5.82;;;21.80;66.70;;;;;;5059866;28;20039;-79
2023/07/02 04:47:08;;;;;;;5.13;4.72;;;21.80;66.60;;;;;;5033797;28;20033;-79
2023/07/02 04:49:34;;;;;;;5.40;5.00;;;21.80;66.50;;;;;;5050416;28;20059;-79
2023/07/02 04:51:59;;;;;;;5.38;5.03;;;21.80;66.50;;;;;;5052036;28;20063;-79
2023/07/02 04:54:25;;;;;;;4.88;4.57;;;21.80;66.50;;;;;;5045317;28;20525;-78
2023/07/02 04:56:51;;;;;;;5.45;5.13;;;21.80;66.50;;;;;;5011711;28;20069;-79
2023/07/02 04:59:16;;;;;;;5.38;4.97;;;21.80;66.50;;;;;;5032309;28;20037;-79
2023/07/02 05:01:42;;;;;;;5.10;4.72;;;21.80;66.50;;;;;;5027196;28;20077;-79
2023/07/02 05:04:10;;;;;;;5.10;4.80;;;21.80;66.60;;;;;;5027949;28;20077;-79
2023/07/02 05:06:35;;;;;;;4.85;4.50;;;21.80;66.50;;;;;;5015715;28;20049;-78
2023/07/02 05:09:01;;;;;;;4.95;4.65;;;21.80;66.60;;;;;;5029261;28;20083;-79
2023/07/02 05:11:26;;;;;;;4.72;4.43;;;21.80;66.50;;;;;;5025405;28;20128;-79
2023/07/02 05:13:52;;;;;;;5.72;5.22;;;21.80;66.50;;;;;;5026145;28;20067;-79
2023/07/02 05:16:17;;;;;;;4.80;4.50;;;21.80;66.50;;;;;;5027655;28;20422;-79
2023/07/02 05:18:43;;;;;;;4.70;4.40;;;21.80;66.50;;;;;;5037221;28;20128;-79
2023/07/02 05:21:08;;;;;;;4.68;4.38;;;21.80;66.50;;;;;;5034995;28;20520;-79
2023/07/02 05:23:34;;;;;;;4.50;4.20;;;21.80;66.50;;;;;;5070510;28;20072;-79
2023/07/02 05:26:00;;;;;;;4.45;4.05;;;21.80;66.50;;;;;;5027063;28;20091;-79
2023/07/02 05:28:25;;;;;;;4.90;4.50;;;21.80;66.50;;;;;;5045485;28;20048;-78
2023/07/02 05:30:51;;;;;;;4.43;4.13;;;21.80;66.40;;;;;;5038307;28;20033;-79
2023/07/02 05:33:16;;;;;;;4.95;4.55;;;21.80;66.40;;;;;;5047593;28;20492;-79
2023/07/02 05:35:42;;;;;;;5.22;4.82;;;21.80;66.40;;;;;;5026953;28;20053;-79
2023/07/02 05:38:07;;;;;;;4.50;4.20;;;21.80;66.40;;;;;;5029166;28;20453;-79
2023/07/02 05:40:33;;;;;;;4.82;4.43;;;21.80;66.40;;;;;;5028004;28;20044;-79
2023/07/02 05:42:58;;;;;;;4.80;4.43;;;21.80;66.40;;;;;;5030925;28;20120;-79
2023/07/02 05:45:24;;;;;;;4.80;4.50;;;21.80;66.40;;;;;;5028180;28;20041;-78
2023/07/02 05:47:49;;;;;;;4.45;4.20;;;21.80;66.40;;;;;;5028223;28;20041;-79
2023/07/02 05:50:15;;;;;;;4.85;4.55;;;21.80;66.40;;;;;;5027117;28;20492;-79
2023/07/02 05:52:41;;;;;;;5.28;4.80;;;21.80;66.50;;;;;;5028226;28;20038;-79
2023/07/02 05:55:12;;;;;;;4.43;4.13;;;21.80;66.50;;;;;;5028475;28;20049;-79
2023/07/02 05:57:38;;;;;;;4.53;4.22;;;21.80;66.40;;;;;;5041177;28;20045;-79
2023/07/02 06:00:05;;;;;;;4.47;4.18;;;21.80;66.50;;;;;;5044920;28;20036;-79
2023/07/02 06:02:31;;;;;;;4.97;4.57;;;21.80;66.50;;;;;;5041511;28;20032;-78
2023/07/02 06:04:57;;;;;;;4.57;4.20;;;21.80;67.20;;;;;;5051786;28;20490;-79
2023/07/02 06:07:24;;;;;;;4.60;4.30;;;21.80;66.50;;;;;;5036379;28;20061;-78
2023/07/02 06:09:49;;;;;;;4.53;4.22;;;21.80;66.50;;;;;;5075537;28;20029;-79
2023/07/02 06:12:15;;;;;;;4.53;4.28;;;21.80;66.50;;;;;;5053111;28;20094;-79
2023/07/02 06:14:40;;;;;;;4.50;4.20;;;21.80;66.50;;;;;;5039098;28;20059;-79
2023/07/02 06:17:07;;;;;;;4.40;4.10;;;21.80;66.50;;;;;;5020947;28;20120;-79
2023/07/02 06:19:33;;;;;;;4.50;4.15;;;21.80;66.50;;;;;;5048246;28;20060;-79
2023/07/02 06:21:58;;;;;;;4.50;4.30;;;21.80;66.50;;;;;;5033680;28;20049;-79
2023/07/02 06:24:24;;;;;;;4.22;3.92;;;21.80;66.50;;;;;;5030726;28;20029;-78
2023/07/02 06:26:49;;;;;;;4.72;4.43;;;21.80;66.50;;;;;;5033218;28;20479;-79
2023/07/02 06:29:15;;;;;;;4.70;4.40;;;21.80;66.50;;;;;;5031432;28;20049;-79
2023/07/02 06:31:41;;;;;;;4.32;4.03;;;21.80;66.50;;;;;;5059441;28;20026;-79
2023/07/02 06:34:08;;;;;;;4.57;4.18;;;21.80;66.50;;;;;;5035598;28;20040;-78
2023/07/02 06:36:34;;;;;;;4.68;4.28;;;21.80;66.50;;;;;;5055666;28;20033;-79
2023/07/02 06:38:59;;;;;;;4.65;4.25;;;21.80;66.40;;;;;;5017419;28;20499;-79
2023/07/02 06:41:25;;;;;;;4.70;4.40;;;21.80;66.50;;;;;;5045528;28;20037;-78
2023/07/02 06:43:51;;;;;;;4.65;4.35;;;21.80;66.50;;;;;;5049257;28;20366;-79
2023/07/02 06:46:16;;;;;;;4.38;4.07;;;21.80;66.40;;;;;;5063566;28;20073;-79
2023/07/02 06:48:42;;;;;;;4.35;4.05;;;21.80;66.40;;;;;;5035264;28;20044;-79
2023/07/02 06:51:08;;;;;;;4.60;4.30;;;21.80;66.40;;;;;;5033358;28;20123;-79
2023/07/02 06:53:34;;;;;;;5.03;4.53;;;21.80;66.40;;;;;;5024152;28;20084;-79
2023/07/02 06:55:59;;;;;;;4.30;4.05;;;21.80;66.40;;;;;;5031203;28;20045;-79
2023/07/02 06:58:25;;;;;;;4.55;4.25;;;21.80;66.40;;;;;;5032846;28;20049;-79
2023/07/02 07:00:51;;;;;;;4.57;4.28;;;21.80;66.30;;;;;;5014059;28;20037;-79
2023/07/02 07:03:16;;;;;;;4.82;4.43;;;21.80;66.40;;;;;;5050569;28;20048;-79
2023/07/02 07:05:42;;;;;;;4.10;3.90;;;21.80;66.40;;;;;;5034189;28;20033;-79
2023/07/02 07:08:07;;;;;;;4.55;4.25;;;21.80;66.30;;;;;;5038103;28;20052;-79
2023/07/02 07:10:34;;;;;;;4.82;4.53;;;21.80;66.30;;;;;;5023519;28;20522;-78
2023/07/02 07:13:02;;;;;;;5.20;4.80;;;21.80;66.30;;;;;;5047229;28;20037;-79
2023/07/02 07:15:29;;;;;;;4.65;4.35;;;21.80;66.30;;;;;;5036420;28;20507;-78
2023/07/02 07:17:55;;;;;;;4.05;3.83;;;21.80;66.30;;;;;;5029171;28;20068;-79
2023/07/02 07:20:20;;;;;;;4.50;4.20;;;21.80;66.30;;;;;;5030511;28;20055;-79
2023/07/02 07:22:46;;;;;;;4.50;4.20;;;21.90;66.30;;;;;;5029946;28;20547;-79
2023/07/02 07:25:11;;;;;;;4.30;4.00;;;21.90;66.30;;;;;;5030126;28;20045;-79
2023/07/02 07:27:37;;;;;;;4.22;3.92;;;21.90;66.30;;;;;;5031335;28;20514;-79
2023/07/02 07:30:03;;;;;;;4.63;4.25;;;21.80;66.30;;;;;;5045926;28;20419;-79
2023/07/02 07:32:28;;;;;;;4.10;3.90;;;21.80;66.20;;;;;;5025757;28;20459;-79
2023/07/02 07:34:54;;;;;;;4.10;3.80;;;21.90;66.30;;;;;;5050039;28;20249;-79
2023/07/02 07:37:19;;;;;;;3.95;3.65;;;21.90;66.30;;;;;;5036449;28;20123;-79
2023/07/02 07:39:45;;;;;;;3.83;3.55;;;21.90;66.20;;;;;;5035314;28;20044;-79
2023/07/02 07:42:10;;;;;;;4.07;3.88;;;21.90;66.30;;;;;;5029090;28;20038;-79
2023/07/02 07:44:36;;;;;;;3.95;3.67;;;21.90;66.20;;;;;;5032490;28;20045;-79
2023/07/02 07:47:02;;;;;;;3.88;3.63;;;21.90;66.20;;;;;;5030514;28;20452;-79
2023/07/02 07:49:27;;;;;;;3.75;3.50;;;21.90;66.10;;;;;;5035257;28;20053;-79
2023/07/02 07:51:53;;;;;;;4.10;3.80;;;21.90;66.10;;;;;;5031374;28;20037;-79
2023/07/02 07:54:18;;;;;;;4.05;3.60;;;21.90;66.00;;;;;;5046596;28;20045;-79
2023/07/02 07:56:44;;;;;;;4.10;3.80;;;21.90;66.00;;;;;;5032595;28;20049;-79
2023/07/02 07:59:11;;;;;;;4.57;4.28;;;21.90;66.90;;;;;;5029908;28;20041;-79
2023/07/02 08:01:36;;;;;;;4.05;3.75;;;21.90;66.10;;;;;;5028051;28;20496;-79
2023/07/02 08:04:02;;;;;;;4.65;4.35;;;21.90;66.10;;;;;;5026758;28;20547;-79
2023/07/02 08:06:27;;;;;;;4.13;3.83;;;21.90;66.10;;;;;;5032062;28;20096;-79
2023/07/02 08:08:53;;;;;;;4.10;3.80;;;22.00;67.00;;;;;;5034450;28;20506;-79
2023/07/02 08:11:18;;;;;;;4.30;3.90;;;21.90;66.20;;;;;;5039154;28;20079;-79
2023/07/02 08:13:44;;;;;;;3.70;3.40;;;21.90;66.10;;;;;;5031903;28;20140;-79
2023/07/02 08:16:10;;;;;;;4.22;3.88;;;21.90;66.10;;;;;;5023894;28;20053;-79
2023/07/02 08:18:35;;;;;;;4.07;3.67;;;22.00;66.00;;;;;;5040240;28;20041;-79
2023/07/02 08:21:01;;;;;;;4.43;4.13;;;22.00;66.80;;;;;;5039372;28;20447;-79
2023/07/02 08:23:26;;;;;;;4.05;3.75;;;22.00;66.90;;;;;;5044216;28;20037;-79
2023/07/02 08:25:52;;;;;;;3.75;3.55;;;22.00;66.30;;;;;;5059840;28;20045;-79
2023/07/02 08:28:17;;;;;;;3.67;3.38;;;22.00;66.20;;;;;;5047776;28;20048;-79
2023/07/02 08:30:43;;;;;;;3.70;3.50;;;22.00;66.00;;;;;;5044973;28;20037;-78
2023/07/02 08:33:08;;;;;;;3.80;3.50;;;22.00;66.00;;;;;;5029996;28;20487;-79
2023/07/02 08:35:34;;;;;;;4.32;4.03;;;22.00;66.00;;;;;;5030505;28;20038;-78
2023/07/02 08:38:00;;;;;;;3.80;3.60;;;22.00;66.90;;;;;;5016721;28;20133;-79
2023/07/02 08:40:25;;;;;;;4.35;4.05;;;22.00;66.00;;;;;;5039236;28;20687;-79
2023/07/02 08:42:51;;;;;;;3.70;3.50;;;22.00;66.40;;;;;;5036725;28;20045;-79
2023/07/02 08:45:16;;;;;;;3.78;3.55;;;22.00;66.10;;;;;;5033067;28;20037;-79
2023/07/02 08:47:43;;;;;;;3.67;3.47;;;22.00;65.90;;;;;;5032784;28;20044;-79
2023/07/02 08:50:09;;;;;;;3.53;3.33;;;22.00;66.20;;;;;;5032601;28;20151;-79
2023/07/02 08:52:35;;;;;;;4.13;3.83;;;22.00;65.70;;;;;;5064530;28;20049;-78
2023/07/02 08:55:00;;;;;;;3.78;3.58;;;22.00;66.00;;;;;;5050499;28;20491;-79
2023/07/02 08:57:26;;;;;;;3.78;3.53;;;22.00;65.70;;;;;;5052332;28;20112;-79
2023/07/02 08:59:51;;;;;;;4.07;3.78;;;22.00;65.70;;;;;;5030457;28;20037;-79
2023/07/02 09:02:17;;;;;;;4.00;3.70;;;22.00;65.50;;;;;;5052381;28;20041;-79
2023/07/02 09:04:43;;;;;;;3.80;3.50;;;22.00;65.80;;;;;;5050572;28;20021;-78
2023/07/02 09:07:10;;;;;;;4.20;3.90;;;22.00;65.90;;;;;;5046282;28;20048;-79
2023/07/02 09:09:46;;;;;;;3.58;3.33;;;22.00;65.90;;;;;;5053483;28;20033;-79
2023/07/02 09:12:25;;;;;;;4.60;4.20;;;22.00;66.20;;;;;;5048955;28;20049;-79
2023/07/02 09:14:55;;;;;;;3.80;3.60;;;22.00;66.60;;;;;;5071165;28;20442;-79
2023/07/02 09:17:21;;;;;;;4.10;3.80;;;22.00;66.10;;;;;;5048597;28;20043;-79
2023/07/02 09:19:50;;;;;;;3.63;3.40;;;22.10;65.90;;;;;;5050941;28;20120;-79
2023/07/02 09:22:16;;;;;;;3.45;3.25;;;22.10;65.80;;;;;;5047847;28;20498;-79
2023/07/02 09:24:42;;;;;;;3.95;3.65;;;22.10;65.60;;;;;;5064760;28;20565;-79
2023/07/02 09:27:07;;;;;;;3.53;3.33;;;22.10;65.20;;;;;;5051911;28;20067;-79
2023/07/02 09:29:33;;;;;;;3.40;3.20;;;22.10;66.20;;;;;;5035227;28;20040;-79
2023/07/02 09:32:00;;;;;;;3.88;3.58;;;22.00;66.80;;;;;;5045250;28;20087;-79
2023/07/02 09:34:30;;;;;;;3.88;3.67;;;22.00;67.50;;;;;;5032258;28;20112;-79
2023/07/02 09:36:56;;;;;;;3.78;3.47;;;22.10;66.00;;;;;;5052382;28;20072;-79
2023/07/02 09:39:32;;;;;;;3.80;3.50;;;22.10;65.30;;;;;;5038926;28;20067;-79
2023/07/02 09:41:59;;;;;;;3.38;3.17;;;22.10;64.90;;;;;;5053253;28;20090;-79
2023/07/02 09:44:30;;;;;;;3.70;3.50;;;22.10;65.00;;;;;;5052578;28;20037;-79
2023/07/02 09:47:04;;;;;;;3.72;3.53;;;22.10;65.10;;;;;;5048777;28;20478;-79
2023/07/02 09:49:37;;;;;;;4.00;3.70;;;22.10;65.50;;;;;;5050486;28;20064;-79
2023/07/02 09:52:05;;;;;;;3.70;3.45;;;22.00;65.70;;;;;;5031973;28;20080;-79
2023/07/02 09:54:30;;;;;;;3.40;3.20;;;22.10;65.60;;;;;;5028630;28;20033;-79
2023/07/02 09:56:57;;;;;;;3.85;3.55;;;22.10;65.70;;;;;;5047067;28;20055;-79
2023/07/02 09:59:23;;;;;;;3.35;3.15;;;22.10;65.90;;;;;;5069583;28;20076;-79
2023/07/02 10:01:49;;;;;;;3.33;3.13;;;22.10;65.20;;;;;;5035027;28;20094;-79
2023/07/02 10:04:15;;;;;;;3.90;3.60;;;22.10;65.50;;;;;;5051191;28;20060;-79
2023/07/02 10:06:47;;;;;;;4.00;3.70;;;22.10;65.40;;;;;;5035319;28;20047;-79
2023/07/02 10:09:13;;;;;;;3.70;3.50;;;22.10;65.60;;;;;;5030903;28;20486;-79
2023/07/02 10:11:39;;;;;;;3.65;3.35;;;22.10;65.10;;;;;;5027058;28;20060;-79
2023/07/02 10:14:04;;;;;;;3.58;3.38;;;22.10;64.90;;;;;;5032620;28;20073;-79
2023/07/02 10:16:31;;;;;;;3.50;3.30;;;22.10;64.70;;;;;;5068571;28;20091;-79
2023/07/02 10:19:17;;;;;;;3.92;3.63;;;22.20;64.70;;;;;;5061142;28;20575;-79
2023/07/02 10:21:45;;;;;;;3.95;3.65;;;22.10;64.80;;;;;;5042814;28;20124;-79
2023/07/02 10:24:12;;;;;;;4.05;3.75;;;22.20;64.80;;;;;;5036699;28;20425;-79
2023/07/02 10:26:38;;;;;;;3.90;3.70;;;22.10;64.80;;;;;;5036076;28;20414;-78
2023/07/02 10:29:04;;;;;;;3.72;3.53;;;22.20;64.70;;;;;;5030850;28;20049;-79
2023/07/02 10:31:29;;;;;;;3.55;3.35;;;22.20;65.00;;;;;;5029767;28;20049;-79
2023/07/02 10:33:55;;;;;;;3.60;3.30;;;22.20;64.90;;;;;;5033600;28;20029;-79
2023/07/02 10:36:24;;;;;;;3.85;3.55;;;22.20;65.00;;;;;;5036617;28;20120;-79
2023/07/02 10:38:50;;;;;;;3.83;3.53;;;22.20;65.00;;;;;;5025190;28;20485;-79
2023/07/02 10:41:26;;;;;;;3.63;3.42;;;22.20;64.70;;;;;;5023320;28;20044;-79
2023/07/02 10:43:51;;;;;;;3.38;3.17;;;22.20;64.60;;;;;;5033683;28;20126;-79
2023/07/02 10:46:23;;;;;;;4.43;4.03;;;22.20;65.40;;;;;;5047999;28;20506;-79
2023/07/02 10:48:54;;;;;;;4.05;3.75;;;22.20;64.60;;;;;;5035975;28;20068;-79
2023/07/02 10:51:21;;;;;;;3.58;3.30;;;22.20;64.60;;;;;;5015468;28;20075;-79
2023/07/02 10:53:59;;;;;;;3.72;3.53;;;22.20;64.50;;;;;;5037057;28;20041;-79
2023/07/02 10:56:27;;;;;;;3.83;3.53;;;22.20;64.40;;;;;;5030530;28;20045;-79
2023/07/02 10:58:53;;;;;;;3.70;3.50;;;22.20;64.50;;;;;;5027104;28;20037;-79
2023/07/02 11:01:29;;;;;;;2.92;2.72;;;22.20;64.60;;;;;;5010945;28;20038;-79
2023/07/02 11:04:01;;;;;;;3.22;3.03;;;22.20;64.40;;;;;;5031914;28;20518;-79
2023/07/02 11:06:27;;;;;;;3.50;3.30;;;22.20;64.60;;;;;;5051301;28;20033;-79
2023/07/02 11:08:54;;;;;;;3.30;3.10;;;22.30;64.50;;;;;;5038056;28;20507;-79
2023/07/02 11:11:20;;;;;;;3.22;3.00;;;22.20;64.40;;;;;;5045670;28;20048;-79
2023/07/02 11:13:46;;;;;;;3.13;2.88;;;22.20;64.30;;;;;;5026147;28;20040;-78
2023/07/02 11:16:26;;;;;;;3.20;3.00;;;22.20;64.30;;;;;;5046108;28;20059;-79
2023/07/02 11:18:53;;;;;;;3.35;3.05;;;22.20;64.60;;;;;;5046571;28;20448;-79
2023/07/02 11:21:18;;;;;;;3.70;3.40;;;22.20;64.70;;;;;;5034690;28;20049;-79
2023/07/02 11:23:44;;;;;;;2.75;2.55;;;22.20;64.80;;;;;;5031064;28;20412;-79
2023/07/02 11:26:10;;;;;;;3.25;2.95;;;22.20;64.70;;;;;;5030031;28;20136;-80
2023/07/02 11:28:35;;;;;;;3.95;3.65;;;22.20;64.70;;;;;;5029021;28;20049;-79
2023/07/02 11:31:05;;;;;;;2.97;2.78;;;22.20;64.70;;;;;;5047541;28;20597;-79
2023/07/02 11:33:37;;;;;;;3.20;3.00;;;22.20;64.60;;;;;;5032546;28;20041;-79
2023/07/02 11:36:04;;;;;;;3.80;3.50;;;22.20;64.60;;;;;;5030414;28;20057;-79
2023/07/02 11:38:30;;;;;;;3.15;2.95;;;22.20;64.60;;;;;;5031593;28;20038;-79
2023/07/02 11:40:55;;;;;;;3.42;3.22;;;22.20;64.70;;;;;;5029268;28;20048;-78
2023/07/02 11:43:21;;;;;;;4.20;2.83;;;22.20;64.90;;;;;;5028366;28;20124;-79
2023/07/02 11:45:46;;;;;;;2.60;2.40;;;22.20;64.90;;;;;;5034378;28;20045;-78
2023/07/02 11:48:12;;;;;;;2.92;2.72;;;22.20;64.90;;;;;;5035977;28;20630;-79
2023/07/02 11:50:38;;;;;;;3.22;3.03;;;22.20;64.90;;;;;;5035074;28;20053;-79
2023/07/02 11:53:03;;;;;;;3.15;2.95;;;22.20;64.90;;;;;;5051940;28;20048;-79
2023/07/02 11:55:29;;;;;;;2.97;2.78;;;22.30;64.90;;;;;;5050216;28;20461;-79
2023/07/02 11:57:54;;;;;;;2.80;2.60;;;22.20;65.00;;;;;;5052000;28;20106;-79
2023/07/02 12:00:20;;;;;;;3.25;3.05;;;22.20;64.80;;;;;;5035270;28;20072;-79
2023/07/02 12:02:46;;;;;;;3.05;2.85;;;22.20;64.90;;;;;;5048288;28;20041;-78
2023/07/02 12:05:11;;;;;;;3.22;3.03;;;22.20;64.80;;;;;;5052606;28;20044;-79
2023/07/02 12:07:37;;;;;;;3.15;2.95;;;22.20;64.90;;;;;;5052320;28;20068;-79
2023/07/02 12:10:03;;;;;;;3.33;3.03;;;22.30;64.90;;;;;;5048333;28;20052;-79
2023/07/02 12:12:28;;;;;;;2.70;2.53;;;22.20;64.90;;;;;;5035577;28;20051;-79
2023/07/02 12:14:54;;;;;;;3.20;2.90;;;22.20;64.90;;;;;;5049620;28;20506;-79
2023/07/02 12:17:19;;;;;;;2.95;2.75;;;22.30;64.90;;;;;;5048475;28;20029;-79
2023/07/02 12:19:45;;;;;;;2.72;2.53;;;22.20;64.90;;;;;;5048644;28;20115;-78
2023/07/02 12:22:10;;;;;;;2.72;2.53;;;22.20;65.00;;;;;;5049195;28;20025;-79
2023/07/02 12:24:36;;;;;;;2.75;2.55;;;22.20;65.00;;;;;;5034236;28;20068;-79
2023/07/02 12:27:02;;;;;;;2.45;2.25;;;22.20;65.00;;;;;;5051534;28;20116;-79
2023/07/02 12:29:28;;;;;;;2.95;2.75;;;22.20;65.00;;;;;;5051329;28;20578;-79
2023/07/02 12:31:53;;;;;;;3.25;2.95;;;22.20;65.00;;;;;;5051536;28;20040;-78
2023/07/02 12:34:19;;;;;;;2.75;2.55;;;22.20;65.00;;;;;;5051554;28;20025;-79
2023/07/02 12:36:44;;;;;;;2.78;2.58;;;22.20;64.90;;;;;;5055790;28;20059;-79
2023/07/02 12:39:10;;;;;;;2.92;2.65;;;22.20;64.90;;;;;;5046232;28;20809;-79
2023/07/02 12:41:35;;;;;;;2.78;2.58;;;22.20;64.80;;;;;;5061549;28;20089;-79
2023/07/02 12:44:01;;;;;;;2.85;2.65;;;22.20;64.90;;;;;;5046499;28;20581;-79